sensor_id;sensor_type;location;lat;lon;timestamp;temperature;humidity
22108;DHT22;11220;48.812;9.128;2023-09-30T00:01:50;21.20;92.60
22108;DHT22;11220;48.812;9.128;2023-09-30T00:04:17;21.10;92.60
22108;DHT22;11220;48.812;9.128;2023-09-30T00:06:43;21.20;92.70
22108;DHT22;11220;48.812;9.128;2023-09-30T00:09:09;21.20;92.70
22108;DHT22;11220;48.812;9.128;2023-09-30T00:11:34;21.20;92.70
22108;DHT22;11220;48.812;9.128;2023-09-30T00:14:00;21.10;92.70
22108;DHT22;11220;48.812;9.128;2023-09-30T00:16:25;21.20;92.70
22108;DHT22;11220;48.812;9.128;2023-09-30T00:18:51;21.10;92.70
22108;DHT22;11220;48.812;9.128;2023-09-30T00:21:19;21.20;92.70
22108;DHT22;11220;48.812;9.128;2023-09-30T00:23:45;21.10;92.70
22108;DHT22;11220;48.812;9.128;2023-09-30T00:26:10;21.10;92.70
22108;DHT22;11220;48.812;9.128;2023-09-30T00:28:36;21.10;92.70
22108;DHT22;11220;48.812;9.128;2023-09-30T00:31:06;21.10;92.70
22108;DHT22;11220;48.812;9.128;2023-09-30T00:33:34;21.10;92.70
22108;DHT22;11220;48.812;9.128;2023-09-30T00:35:59;21.10;92.70
22108;DHT22;11220;48.812;9.128;2023-09-30T00:38:30;21.10;92.70
22108;DHT22;11220;48.812;9.128;2023-09-30T00:40:56;21.10;92.70
22108;DHT22;11220;48.812;9.128;2023-09-30T00:43:21;21.10;92.80
22108;DHT22;11220;48.812;9.128;2023-09-30T00:45:48;21.00;92.70
22108;DHT22;11220;48.812;9.128;2023-09-30T00:48:17;21.20;92.80
22108;DHT22;11220;48.812;9.128;2023-09-30T00:50:43;21.00;92.80
22108;DHT22;11220;48.812;9.128;2023-09-30T00:53:09;21.10;92.80
22108;DHT22;11220;48.812;9.128;2023-09-30T00:55:36;21.10;92.80
22108;DHT22;11220;48.812;9.128;2023-09-30T00:58:02;21.10;92.80
22108;DHT22;11220;48.812;9.128;2023-09-30T01:00:28;21.10;92.80
22108;DHT22;11220;48.812;9.128;2023-09-30T01:02:53;21.00;92.80
22108;DHT22;11220;48.812;9.128;2023-09-30T01:05:19;21.00;92.80
22108;DHT22;11220;48.812;9.128;2023-09-30T01:07:45;21.10;92.80
22108;DHT22;11220;48.812;9.128;2023-09-30T01:10:10;21.10;92.80
22108;DHT22;11220;48.812;9.128;2023-09-30T01:12:36;21.10;92.90
22108;DHT22;11220;48.812;9.128;2023-09-30T01:15:02;21.10;92.90
22108;DHT22;11220;48.812;9.128;2023-09-30T01:17:31;21.00;92.80
22108;DHT22;11220;48.812;9.128;2023-09-30T01:19:57;21.10;92.80
22108;DHT22;11220;48.812;9.128;2023-09-30T01:22:24;21.10;92.80
22108;DHT22;11220;48.812;9.128;2023-09-30T01:24:50;21.10;92.90
22108;DHT22;11220;48.812;9.128;2023-09-30T01:27:15;20.90;92.80
22108;DHT22;11220;48.812;9.128;2023-09-30T01:29:43;21.00;92.90
22108;DHT22;11220;48.812;9.128;2023-09-30T01:32:09;21.10;92.90
22108;DHT22;11220;48.812;9.128;2023-09-30T01:34:35;21.00;92.90
22108;DHT22;11220;48.812;9.128;2023-09-30T01:37:01;21.00;92.90
22108;DHT22;11220;48.812;9.128;2023-09-30T01:39:26;21.00;92.90
22108;DHT22;11220;48.812;9.128;2023-09-30T01:41:52;20.90;92.90
22108;DHT22;11220;48.812;9.128;2023-09-30T01:44:19;21.10;93.00
22108;DHT22;11220;48.812;9.128;2023-09-30T01:46:44;21.00;92.90
22108;DHT22;11220;48.812;9.128;2023-09-30T01:49:10;21.00;93.00
22108;DHT22;11220;48.812;9.128;2023-09-30T01:51:35;20.90;92.90
22108;DHT22;11220;48.812;9.128;2023-09-30T01:54:01;21.00;93.00
22108;DHT22;11220;48.812;9.128;2023-09-30T01:56:27;20.90;93.00
22108;DHT22;11220;48.812;9.128;2023-09-30T01:58:52;21.00;93.00
22108;DHT22;11220;48.812;9.128;2023-09-30T02:01:18;20.90;93.00
22108;DHT22;11220;48.812;9.128;2023-09-30T02:03:43;21.00;93.10
22108;DHT22;11220;48.812;9.128;2023-09-30T02:06:09;21.00;93.10
22108;DHT22;11220;48.812;9.128;2023-09-30T02:08:35;20.90;93.00
22108;DHT22;11220;48.812;9.128;2023-09-30T02:11:04;21.00;93.10
22108;DHT22;11220;48.812;9.128;2023-09-30T02:13:35;21.00;93.10
22108;DHT22;11220;48.812;9.128;2023-09-30T02:16:01;20.90;93.10
22108;DHT22;11220;48.812;9.128;2023-09-30T02:18:27;20.90;93.10
22108;DHT22;11220;48.812;9.128;2023-09-30T02:20:53;20.90;93.10
22108;DHT22;11220;48.812;9.128;2023-09-30T02:23:19;20.90;93.10
22108;DHT22;11220;48.812;9.128;2023-09-30T02:25:44;20.90;93.10
22108;DHT22;11220;48.812;9.128;2023-09-30T02:28:10;20.90;93.10
22108;DHT22;11220;48.812;9.128;2023-09-30T02:30:36;21.00;93.20
22108;DHT22;11220;48.812;9.128;2023-09-30T02:33:02;21.30;93.30
22108;DHT22;11220;48.812;9.128;2023-09-30T02:35:28;20.90;93.10
22108;DHT22;11220;48.812;9.128;2023-09-30T02:37:54;20.90;93.10
22108;DHT22;11220;48.812;9.128;2023-09-30T02:40:20;20.90;93.10
22108;DHT22;11220;48.812;9.128;2023-09-30T02:42:46;20.90;93.10
22108;DHT22;11220;48.812;9.128;2023-09-30T02:45:12;20.90;93.10
22108;DHT22;11220;48.812;9.128;2023-09-30T02:47:38;20.90;93.20
22108;DHT22;11220;48.812;9.128;2023-09-30T02:50:09;21.00;93.20
22108;DHT22;11220;48.812;9.128;2023-09-30T02:52:36;20.90;93.20
22108;DHT22;11220;48.812;9.128;2023-09-30T02:55:04;20.90;93.20
22108;DHT22;11220;48.812;9.128;2023-09-30T02:57:30;20.90;93.20
22108;DHT22;11220;48.812;9.128;2023-09-30T02:59:56;20.90;93.20
22108;DHT22;11220;48.812;9.128;2023-09-30T03:02:24;20.90;93.20
22108;DHT22;11220;48.812;9.128;2023-09-30T03:04:50;20.90;93.20
22108;DHT22;11220;48.812;9.128;2023-09-30T03:07:18;20.80;93.20
22108;DHT22;11220;48.812;9.128;2023-09-30T03:09:44;20.90;93.20
22108;DHT22;11220;48.812;9.128;2023-09-30T03:12:10;20.90;93.20
22108;DHT22;11220;48.812;9.128;2023-09-30T03:14:37;20.90;93.20
22108;DHT22;11220;48.812;9.128;2023-09-30T03:17:03;20.80;93.20
22108;DHT22;11220;48.812;9.128;2023-09-30T03:19:28;20.80;93.20
22108;DHT22;11220;48.812;9.128;2023-09-30T03:21:54;20.90;93.20
22108;DHT22;11220;48.812;9.128;2023-09-30T03:24:20;20.80;93.20
22108;DHT22;11220;48.812;9.128;2023-09-30T03:26:46;20.80;93.20
22108;DHT22;11220;48.812;9.128;2023-09-30T03:29:12;20.80;93.20
22108;DHT22;11220;48.812;9.128;2023-09-30T03:31:38;21.00;93.30
22108;DHT22;11220;48.812;9.128;2023-09-30T03:34:03;20.90;93.30
22108;DHT22;11220;48.812;9.128;2023-09-30T03:36:30;20.80;93.20
22108;DHT22;11220;48.812;9.128;2023-09-30T03:38:55;20.80;93.20
22108;DHT22;11220;48.812;9.128;2023-09-30T03:41:22;20.80;93.20
22108;DHT22;11220;48.812;9.128;2023-09-30T03:43:47;20.80;93.20
22108;DHT22;11220;48.812;9.128;2023-09-30T03:46:14;20.90;93.20
22108;DHT22;11220;48.812;9.128;2023-09-30T03:48:41;20.80;93.20
22108;DHT22;11220;48.812;9.128;2023-09-30T03:51:11;20.80;93.30
22108;DHT22;11220;48.812;9.128;2023-09-30T03:53:42;20.80;93.70
22108;DHT22;11220;48.812;9.128;2023-09-30T03:56:07;20.80;93.30
22108;DHT22;11220;48.812;9.128;2023-09-30T03:58:33;20.70;93.20
22108;DHT22;11220;48.812;9.128;2023-09-30T04:01:00;20.70;93.30
22108;DHT22;11220;48.812;9.128;2023-09-30T04:03:29;20.80;93.30
22108;DHT22;11220;48.812;9.128;2023-09-30T04:05:55;20.70;93.30
22108;DHT22;11220;48.812;9.128;2023-09-30T04:08:21;20.80;93.40
22108;DHT22;11220;48.812;9.128;2023-09-30T04:10:47;20.80;93.40
22108;DHT22;11220;48.812;9.128;2023-09-30T04:13:13;20.80;93.40
22108;DHT22;11220;48.812;9.128;2023-09-30T04:15:38;20.70;93.30
22108;DHT22;11220;48.812;9.128;2023-09-30T04:18:05;20.80;93.40
22108;DHT22;11220;48.812;9.128;2023-09-30T04:20:31;20.80;93.40
22108;DHT22;11220;48.812;9.128;2023-09-30T04:22:56;20.70;93.40
22108;DHT22;11220;48.812;9.128;2023-09-30T04:25:23;20.70;93.30
22108;DHT22;11220;48.812;9.128;2023-09-30T04:27:51;20.70;93.40
22108;DHT22;11220;48.812;9.128;2023-09-30T04:30:18;20.80;93.40
22108;DHT22;11220;48.812;9.128;2023-09-30T04:32:43;20.70;93.40
22108;DHT22;11220;48.812;9.128;2023-09-30T04:35:11;20.90;93.50
22108;DHT22;11220;48.812;9.128;2023-09-30T04:37:37;20.70;93.50
22108;DHT22;11220;48.812;9.128;2023-09-30T04:40:09;20.70;93.50
22108;DHT22;11220;48.812;9.128;2023-09-30T04:42:41;20.70;93.50
22108;DHT22;11220;48.812;9.128;2023-09-30T04:45:09;20.70;93.50
22108;DHT22;11220;48.812;9.128;2023-09-30T04:47:35;20.70;93.50
22108;DHT22;11220;48.812;9.128;2023-09-30T04:50:03;20.70;93.60
22108;DHT22;11220;48.812;9.128;2023-09-30T04:52:30;20.70;93.50
22108;DHT22;11220;48.812;9.128;2023-09-30T04:54:56;20.60;93.50
22108;DHT22;11220;48.812;9.128;2023-09-30T04:57:22;20.70;93.50
22108;DHT22;11220;48.812;9.128;2023-09-30T04:59:47;20.70;93.50
22108;DHT22;11220;48.812;9.128;2023-09-30T05:02:13;20.70;93.60
22108;DHT22;11220;48.812;9.128;2023-09-30T05:04:41;20.70;93.60
22108;DHT22;11220;48.812;9.128;2023-09-30T05:07:07;20.70;93.60
22108;DHT22;11220;48.812;9.128;2023-09-30T05:09:34;20.70;93.60
22108;DHT22;11220;48.812;9.128;2023-09-30T05:12:00;20.60;93.60
22108;DHT22;11220;48.812;9.128;2023-09-30T05:14:25;20.80;93.60
22108;DHT22;11220;48.812;9.128;2023-09-30T05:16:53;20.80;93.60
22108;DHT22;11220;48.812;9.128;2023-09-30T05:19:18;20.70;93.60
22108;DHT22;11220;48.812;9.128;2023-09-30T05:21:46;20.60;93.60
22108;DHT22;11220;48.812;9.128;2023-09-30T05:24:12;20.60;93.70
22108;DHT22;11220;48.812;9.128;2023-09-30T05:26:38;20.60;93.70
22108;DHT22;11220;48.812;9.128;2023-09-30T05:29:03;20.60;93.70
22108;DHT22;11220;48.812;9.128;2023-09-30T05:31:29;20.70;93.70
22108;DHT22;11220;48.812;9.128;2023-09-30T05:33:54;20.60;93.70
22108;DHT22;11220;48.812;9.128;2023-09-30T05:36:20;20.70;93.70
22108;DHT22;11220;48.812;9.128;2023-09-30T05:38:46;20.60;93.70
22108;DHT22;11220;48.812;9.128;2023-09-30T05:41:14;20.60;93.70
22108;DHT22;11220;48.812;9.128;2023-09-30T05:43:40;20.60;93.70
22108;DHT22;11220;48.812;9.128;2023-09-30T05:46:06;20.70;93.80
22108;DHT22;11220;48.812;9.128;2023-09-30T05:48:32;20.70;93.80
22108;DHT22;11220;48.812;9.128;2023-09-30T05:50:58;20.60;93.80
22108;DHT22;11220;48.812;9.128;2023-09-30T05:53:23;20.60;93.70
22108;DHT22;11220;48.812;9.128;2023-09-30T05:55:50;20.70;93.70
22108;DHT22;11220;48.812;9.128;2023-09-30T05:58:16;20.60;93.70
22108;DHT22;11220;48.812;9.128;2023-09-30T06:00:42;20.60;93.70
22108;DHT22;11220;48.812;9.128;2023-09-30T06:03:09;20.60;93.70
22108;DHT22;11220;48.812;9.128;2023-09-30T06:05:39;20.60;93.70
22108;DHT22;11220;48.812;9.128;2023-09-30T06:08:05;20.60;93.70
22108;DHT22;11220;48.812;9.128;2023-09-30T06:10:34;20.60;93.70
22108;DHT22;11220;48.812;9.128;2023-09-30T06:13:00;20.60;93.70
22108;DHT22;11220;48.812;9.128;2023-09-30T06:15:27;20.60;93.70
22108;DHT22;11220;48.812;9.128;2023-09-30T06:17:54;20.50;93.70
22108;DHT22;11220;48.812;9.128;2023-09-30T06:20:20;20.60;93.70
22108;DHT22;11220;48.812;9.128;2023-09-30T06:22:48;20.50;93.60
22108;DHT22;11220;48.812;9.128;2023-09-30T06:25:17;20.60;93.70
22108;DHT22;11220;48.812;9.128;2023-09-30T06:27:44;20.60;93.70
22108;DHT22;11220;48.812;9.128;2023-09-30T06:30:10;20.50;93.70
22108;DHT22;11220;48.812;9.128;2023-09-30T06:32:36;20.60;93.80
22108;DHT22;11220;48.812;9.128;2023-09-30T06:35:05;20.60;93.70
22108;DHT22;11220;48.812;9.128;2023-09-30T06:37:34;20.60;93.70
22108;DHT22;11220;48.812;9.128;2023-09-30T06:40:00;20.60;93.70
22108;DHT22;11220;48.812;9.128;2023-09-30T06:42:30;20.60;93.80
22108;DHT22;11220;48.812;9.128;2023-09-30T06:44:56;20.60;93.80
22108;DHT22;11220;48.812;9.128;2023-09-30T06:47:22;20.80;93.80
22108;DHT22;11220;48.812;9.128;2023-09-30T06:49:49;20.60;93.80
22108;DHT22;11220;48.812;9.128;2023-09-30T06:52:15;20.60;93.70
22108;DHT22;11220;48.812;9.128;2023-09-30T06:54:40;20.60;93.70
22108;DHT22;11220;48.812;9.128;2023-09-30T06:57:06;20.60;93.70
22108;DHT22;11220;48.812;9.128;2023-09-30T06:59:33;20.60;93.70
22108;DHT22;11220;48.812;9.128;2023-09-30T07:01:58;20.60;93.60
22108;DHT22;11220;48.812;9.128;2023-09-30T07:04:24;20.70;93.60
22108;DHT22;11220;48.812;9.128;2023-09-30T07:06:52;20.80;93.70
22108;DHT22;11220;48.812;9.128;2023-09-30T07:09:18;20.60;93.60
22108;DHT22;11220;48.812;9.128;2023-09-30T07:11:45;20.60;93.60
22108;DHT22;11220;48.812;9.128;2023-09-30T07:14:11;20.50;93.60
22108;DHT22;11220;48.812;9.128;2023-09-30T07:16:36;20.60;93.60
22108;DHT22;11220;48.812;9.128;2023-09-30T07:19:02;20.70;93.60
22108;DHT22;11220;48.812;9.128;2023-09-30T07:21:28;20.50;93.60
22108;DHT22;11220;48.812;9.128;2023-09-30T07:23:54;20.70;93.60
22108;DHT22;11220;48.812;9.128;2023-09-30T07:26:24;20.60;93.60
22108;DHT22;11220;48.812;9.128;2023-09-30T07:28:49;20.60;93.60
22108;DHT22;11220;48.812;9.128;2023-09-30T07:31:15;20.70;93.60
22108;DHT22;11220;48.812;9.128;2023-09-30T07:33:40;20.60;93.60
22108;DHT22;11220;48.812;9.128;2023-09-30T07:36:06;20.70;93.60
22108;DHT22;11220;48.812;9.128;2023-09-30T07:38:32;20.60;93.60
22108;DHT22;11220;48.812;9.128;2023-09-30T07:41:00;20.70;93.60
22108;DHT22;11220;48.812;9.128;2023-09-30T07:43:27;20.70;93.60
22108;DHT22;11220;48.812;9.128;2023-09-30T07:45:53;20.70;93.60
22108;DHT22;11220;48.812;9.128;2023-09-30T07:48:19;20.70;93.60
22108;DHT22;11220;48.812;9.128;2023-09-30T07:50:44;20.70;93.60
22108;DHT22;11220;48.812;9.128;2023-09-30T07:53:10;20.70;93.70
22108;DHT22;11220;48.812;9.128;2023-09-30T07:55:37;20.60;93.70
22108;DHT22;11220;48.812;9.128;2023-09-30T07:58:03;20.80;93.70
22108;DHT22;11220;48.812;9.128;2023-09-30T08:00:28;20.80;93.60
22108;DHT22;11220;48.812;9.128;2023-09-30T08:02:54;20.70;93.60
22108;DHT22;11220;48.812;9.128;2023-09-30T08:05:20;20.90;93.60
22108;DHT22;11220;48.812;9.128;2023-09-30T08:07:45;20.70;93.50
22108;DHT22;11220;48.812;9.128;2023-09-30T08:10:11;21.00;93.60
22108;DHT22;11220;48.812;9.128;2023-09-30T08:12:39;20.80;93.60
22108;DHT22;11220;48.812;9.128;2023-09-30T08:15:05;20.80;93.60
22108;DHT22;11220;48.812;9.128;2023-09-30T08:17:31;20.80;93.60
22108;DHT22;11220;48.812;9.128;2023-09-30T08:19:57;20.80;93.70
22108;DHT22;11220;48.812;9.128;2023-09-30T08:22:23;20.90;93.70
22108;DHT22;11220;48.812;9.128;2023-09-30T08:24:53;20.90;93.70
22108;DHT22;11220;48.812;9.128;2023-09-30T08:27:19;20.80;93.70
22108;DHT22;11220;48.812;9.128;2023-09-30T08:29:44;20.90;93.70
22108;DHT22;11220;48.812;9.128;2023-09-30T08:32:10;20.80;93.70
22108;DHT22;11220;48.812;9.128;2023-09-30T08:34:35;20.80;93.70
22108;DHT22;11220;48.812;9.128;2023-09-30T08:37:01;20.80;93.70
22108;DHT22;11220;48.812;9.128;2023-09-30T08:39:27;20.80;93.60
22108;DHT22;11220;48.812;9.128;2023-09-30T08:41:55;20.80;93.60
22108;DHT22;11220;48.812;9.128;2023-09-30T08:44:21;20.80;93.60
22108;DHT22;11220;48.812;9.128;2023-09-30T08:46:48;20.90;94.10
22108;DHT22;11220;48.812;9.128;2023-09-30T08:49:15;20.90;93.70
22108;DHT22;11220;48.812;9.128;2023-09-30T08:51:40;20.90;93.70
22108;DHT22;11220;48.812;9.128;2023-09-30T08:54:06;20.90;93.70
22108;DHT22;11220;48.812;9.128;2023-09-30T08:56:32;20.90;93.70
22108;DHT22;11220;48.812;9.128;2023-09-30T08:59:02;20.90;93.70
22108;DHT22;11220;48.812;9.128;2023-09-30T09:01:28;20.90;93.70
22108;DHT22;11220;48.812;9.128;2023-09-30T09:03:55;20.90;93.60
22108;DHT22;11220;48.812;9.128;2023-09-30T09:06:21;20.80;93.60
22108;DHT22;11220;48.812;9.128;2023-09-30T09:08:47;21.00;93.60
22108;DHT22;11220;48.812;9.128;2023-09-30T09:11:13;20.90;93.50
22108;DHT22;11220;48.812;9.128;2023-09-30T09:13:47;20.90;93.30
22108;DHT22;11220;48.812;9.128;2023-09-30T09:16:15;20.80;93.30
22108;DHT22;11220;48.812;9.128;2023-09-30T09:18:41;20.90;93.20
22108;DHT22;11220;48.812;9.128;2023-09-30T09:21:18;20.90;93.10
22108;DHT22;11220;48.812;9.128;2023-09-30T09:23:47;20.90;93.10
22108;DHT22;11220;48.812;9.128;2023-09-30T09:26:30;21.10;93.20
22108;DHT22;11220;48.812;9.128;2023-09-30T09:28:59;20.90;93.10
22108;DHT22;11220;48.812;9.128;2023-09-30T09:31:31;20.90;93.10
22108;DHT22;11220;48.812;9.128;2023-09-30T09:33:57;20.90;93.10
22108;DHT22;11220;48.812;9.128;2023-09-30T09:36:39;21.00;93.10
22108;DHT22;11220;48.812;9.128;2023-09-30T09:39:06;20.90;93.00
22108;DHT22;11220;48.812;9.128;2023-09-30T09:41:32;20.90;93.10
22108;DHT22;11220;48.812;9.128;2023-09-30T09:43:59;20.90;93.10
22108;DHT22;11220;48.812;9.128;2023-09-30T09:46:26;21.00;93.20
22108;DHT22;11220;48.812;9.128;2023-09-30T09:48:53;21.00;93.20
22108;DHT22;11220;48.812;9.128;2023-09-30T09:51:20;20.90;93.20
22108;DHT22;11220;48.812;9.128;2023-09-30T09:53:46;20.90;93.10
22108;DHT22;11220;48.812;9.128;2023-09-30T09:56:14;21.10;93.20
22108;DHT22;11220;48.812;9.128;2023-09-30T09:58:40;21.00;93.20
22108;DHT22;11220;48.812;9.128;2023-09-30T10:01:09;21.00;93.30
22108;DHT22;11220;48.812;9.128;2023-09-30T10:03:36;21.00;93.30
22108;DHT22;11220;48.812;9.128;2023-09-30T10:06:02;20.90;93.30
22108;DHT22;11220;48.812;9.128;2023-09-30T10:08:38;21.10;93.30
22108;DHT22;11220;48.812;9.128;2023-09-30T10:11:06;21.10;93.20
22108;DHT22;11220;48.812;9.128;2023-09-30T10:16:49;21.10;92.90
22108;DHT22;11220;48.812;9.128;2023-09-30T10:19:22;21.10;93.10
22108;DHT22;11220;48.812;9.128;2023-09-30T10:24:51;21.10;93.20
22108;DHT22;11220;48.812;9.128;2023-09-30T10:35:42;21.20;93.20
22108;DHT22;11220;48.812;9.128;2023-09-30T10:40:53;21.20;93.10
22108;DHT22;11220;48.812;9.128;2023-09-30T10:43:34;21.10;93.20
22108;DHT22;11220;48.812;9.128;2023-09-30T10:48:51;21.20;93.20
22108;DHT22;11220;48.812;9.128;2023-09-30T10:51:18;21.20;93.20
22108;DHT22;11220;48.812;9.128;2023-09-30T10:53:51;21.20;93.20
22108;DHT22;11220;48.812;9.128;2023-09-30T10:56:19;21.20;93.20
22108;DHT22;11220;48.812;9.128;2023-09-30T10:58:51;21.20;93.20
22108;DHT22;11220;48.812;9.128;2023-09-30T11:01:22;21.20;93.20
22108;DHT22;11220;48.812;9.128;2023-09-30T11:03:49;21.20;93.30
22108;DHT22;11220;48.812;9.128;2023-09-30T11:06:18;21.20;93.30
22108;DHT22;11220;48.812;9.128;2023-09-30T11:08:48;21.30;93.20
22108;DHT22;11220;48.812;9.128;2023-09-30T11:11:16;21.20;93.30
22108;DHT22;11220;48.812;9.128;2023-09-30T11:13:41;21.20;93.30
22108;DHT22;11220;48.812;9.128;2023-09-30T11:16:07;21.20;93.20
22108;DHT22;11220;48.812;9.128;2023-09-30T11:18:34;21.20;93.20
22108;DHT22;11220;48.812;9.128;2023-09-30T11:21:11;21.30;93.20
22108;DHT22;11220;48.812;9.128;2023-09-30T11:23:39;21.20;93.10
22108;DHT22;11220;48.812;9.128;2023-09-30T11:26:06;21.30;93.10
22108;DHT22;11220;48.812;9.128;2023-09-30T11:28:41;21.30;93.00
22108;DHT22;11220;48.812;9.128;2023-09-30T11:31:10;21.30;93.00
22108;DHT22;11220;48.812;9.128;2023-09-30T11:33:54;21.50;93.10
22108;DHT22;11220;48.812;9.128;2023-09-30T11:36:22;21.30;93.00
22108;DHT22;11220;48.812;9.128;2023-09-30T11:38:50;21.30;93.00
22108;DHT22;11220;48.812;9.128;2023-09-30T11:41:17;21.30;93.00
22108;DHT22;11220;48.812;9.128;2023-09-30T11:44:01;21.30;93.00
22108;DHT22;11220;48.812;9.128;2023-09-30T11:46:27;21.30;93.00
22108;DHT22;11220;48.812;9.128;2023-09-30T11:49:01;21.30;93.00
22108;DHT22;11220;48.812;9.128;2023-09-30T11:51:28;21.30;93.00
22108;DHT22;11220;48.812;9.128;2023-09-30T11:53:55;21.40;93.10
22108;DHT22;11220;48.812;9.128;2023-09-30T11:56:23;21.30;93.10
22108;DHT22;11220;48.812;9.128;2023-09-30T11:58:53;21.30;93.10
22108;DHT22;11220;48.812;9.128;2023-09-30T12:01:19;21.40;93.20
22108;DHT22;11220;48.812;9.128;2023-09-30T12:03:47;21.50;93.30
22108;DHT22;11220;48.812;9.128;2023-09-30T12:06:13;21.40;93.30
22108;DHT22;11220;48.812;9.128;2023-09-30T12:08:39;21.40;93.30
22108;DHT22;11220;48.812;9.128;2023-09-30T12:11:05;21.50;93.40
22108;DHT22;11220;48.812;9.128;2023-09-30T12:13:31;21.50;93.50
22108;DHT22;11220;48.812;9.128;2023-09-30T12:15:57;21.50;93.50
22108;DHT22;11220;48.812;9.128;2023-09-30T12:18:22;21.50;93.60
22108;DHT22;11220;48.812;9.128;2023-09-30T12:20:51;21.60;93.60
22108;DHT22;11220;48.812;9.128;2023-09-30T12:23:18;21.60;93.70
22108;DHT22;11220;48.812;9.128;2023-09-30T12:25:44;21.60;93.70
22108;DHT22;11220;48.812;9.128;2023-09-30T12:28:09;21.60;93.70
22108;DHT22;11220;48.812;9.128;2023-09-30T12:30:35;21.60;93.80
22108;DHT22;11220;48.812;9.128;2023-09-30T12:33:01;21.70;93.80
22108;DHT22;11220;48.812;9.128;2023-09-30T12:35:27;21.70;93.90
22108;DHT22;11220;48.812;9.128;2023-09-30T12:37:52;21.70;93.90
22108;DHT22;11220;48.812;9.128;2023-09-30T12:40:18;21.70;94.00
22108;DHT22;11220;48.812;9.128;2023-09-30T12:42:44;21.70;94.00
22108;DHT22;11220;48.812;9.128;2023-09-30T12:45:10;21.80;94.00
22108;DHT22;11220;48.812;9.128;2023-09-30T12:47:36;21.70;94.00
22108;DHT22;11220;48.812;9.128;2023-09-30T12:50:02;21.80;94.00
22108;DHT22;11220;48.812;9.128;2023-09-30T12:52:28;21.80;94.00
22108;DHT22;11220;48.812;9.128;2023-09-30T12:54:55;21.80;93.90
22108;DHT22;11220;48.812;9.128;2023-09-30T12:57:21;21.80;93.90
22108;DHT22;11220;48.812;9.128;2023-09-30T12:59:47;21.80;93.90
22108;DHT22;11220;48.812;9.128;2023-09-30T13:02:15;21.90;93.90
22108;DHT22;11220;48.812;9.128;2023-09-30T13:04:40;21.90;93.90
22108;DHT22;11220;48.812;9.128;2023-09-30T13:07:11;21.90;93.90
22108;DHT22;11220;48.812;9.128;2023-09-30T13:09:40;21.90;93.90
22108;DHT22;11220;48.812;9.128;2023-09-30T13:12:06;21.90;94.00
22108;DHT22;11220;48.812;9.128;2023-09-30T13:14:32;22.00;94.00
22108;DHT22;11220;48.812;9.128;2023-09-30T13:16:58;22.10;94.00
22108;DHT22;11220;48.812;9.128;2023-09-30T13:19:25;22.10;94.00
22108;DHT22;11220;48.812;9.128;2023-09-30T13:21:50;22.10;94.10
22108;DHT22;11220;48.812;9.128;2023-09-30T13:24:18;22.10;94.00
22108;DHT22;11220;48.812;9.128;2023-09-30T13:26:44;22.10;94.00
22108;DHT22;11220;48.812;9.128;2023-09-30T13:29:10;22.10;94.00
22108;DHT22;11220;48.812;9.128;2023-09-30T13:31:37;22.20;94.10
22108;DHT22;11220;48.812;9.128;2023-09-30T13:34:04;22.20;94.10
22108;DHT22;11220;48.812;9.128;2023-09-30T13:36:29;22.20;94.10
22108;DHT22;11220;48.812;9.128;2023-09-30T13:38:55;22.20;94.10
22108;DHT22;11220;48.812;9.128;2023-09-30T13:41:21;22.30;94.10
22108;DHT22;11220;48.812;9.128;2023-09-30T13:43:46;22.20;94.00
22108;DHT22;11220;48.812;9.128;2023-09-30T13:46:12;22.40;94.00
22108;DHT22;11220;48.812;9.128;2023-09-30T13:48:38;22.30;93.80
22108;DHT22;11220;48.812;9.128;2023-09-30T13:51:08;22.40;93.70
22108;DHT22;11220;48.812;9.128;2023-09-30T13:53:33;22.40;93.70
22108;DHT22;11220;48.812;9.128;2023-09-30T13:55:59;22.40;93.50
22108;DHT22;11220;48.812;9.128;2023-09-30T13:58:25;22.80;93.40
22108;DHT22;11220;48.812;9.128;2023-09-30T14:00:51;22.40;93.00
22108;DHT22;11220;48.812;9.128;2023-09-30T14:03:19;22.30;92.70
22108;DHT22;11220;48.812;9.128;2023-09-30T14:05:46;22.30;92.50
22108;DHT22;11220;48.812;9.128;2023-09-30T14:08:12;22.30;92.30
22108;DHT22;11220;48.812;9.128;2023-09-30T14:10:38;22.30;92.20
22108;DHT22;11220;48.812;9.128;2023-09-30T14:13:04;22.30;92.70
22108;DHT22;11220;48.812;9.128;2023-09-30T14:15:30;22.30;92.20
22108;DHT22;11220;48.812;9.128;2023-09-30T14:17:57;22.40;92.10
22108;DHT22;11220;48.812;9.128;2023-09-30T14:20:23;22.40;92.00
22108;DHT22;11220;48.812;9.128;2023-09-30T14:22:50;22.40;91.90
22108;DHT22;11220;48.812;9.128;2023-09-30T14:25:17;22.40;91.70
22108;DHT22;11220;48.812;9.128;2023-09-30T14:27:43;22.50;91.60
22108;DHT22;11220;48.812;9.128;2023-09-30T14:30:08;22.50;91.50
22108;DHT22;11220;48.812;9.128;2023-09-30T14:32:34;22.50;91.50
22108;DHT22;11220;48.812;9.128;2023-09-30T14:35:00;22.50;91.70
22108;DHT22;11220;48.812;9.128;2023-09-30T14:37:25;22.50;91.60
22108;DHT22;11220;48.812;9.128;2023-09-30T14:39:51;22.60;91.50
22108;DHT22;11220;48.812;9.128;2023-09-30T14:42:16;22.60;91.30
22108;DHT22;11220;48.812;9.128;2023-09-30T14:44:42;22.60;91.20
22108;DHT22;11220;48.812;9.128;2023-09-30T14:47:08;22.60;91.20
22108;DHT22;11220;48.812;9.128;2023-09-30T14:49:34;22.60;91.10
22108;DHT22;11220;48.812;9.128;2023-09-30T14:52:00;22.60;91.00
22108;DHT22;11220;48.812;9.128;2023-09-30T14:54:26;22.50;90.90
22108;DHT22;11220;48.812;9.128;2023-09-30T14:56:51;22.60;90.80
22108;DHT22;11220;48.812;9.128;2023-09-30T14:59:17;22.60;90.70
22108;DHT22;11220;48.812;9.128;2023-09-30T15:01:43;22.60;91.00
22108;DHT22;11220;48.812;9.128;2023-09-30T15:04:08;22.60;90.50
22108;DHT22;11220;48.812;9.128;2023-09-30T15:06:34;22.60;90.40
22108;DHT22;11220;48.812;9.128;2023-09-30T15:09:03;22.50;90.30
22108;DHT22;11220;48.812;9.128;2023-09-30T15:11:29;22.60;90.20
22108;DHT22;11220;48.812;9.128;2023-09-30T15:13:55;22.50;90.10
22108;DHT22;11220;48.812;9.128;2023-09-30T15:16:22;22.50;90.00
22108;DHT22;11220;48.812;9.128;2023-09-30T15:18:49;22.60;90.00
22108;DHT22;11220;48.812;9.128;2023-09-30T15:21:15;22.50;90.00
22108;DHT22;11220;48.812;9.128;2023-09-30T15:23:41;22.50;89.90
22108;DHT22;11220;48.812;9.128;2023-09-30T15:26:07;22.50;89.80
22108;DHT22;11220;48.812;9.128;2023-09-30T15:28:33;22.50;89.60
22108;DHT22;11220;48.812;9.128;2023-09-30T15:30:59;22.50;89.50
22108;DHT22;11220;48.812;9.128;2023-09-30T15:33:26;22.40;89.20
22108;DHT22;11220;48.812;9.128;2023-09-30T15:35:51;22.50;89.00
22108;DHT22;11220;48.812;9.128;2023-09-30T15:38:18;22.50;88.70
22108;DHT22;11220;48.812;9.128;2023-09-30T15:40:54;22.50;88.60
22108;DHT22;11220;48.812;9.128;2023-09-30T15:43:23;22.50;88.40
22108;DHT22;11220;48.812;9.128;2023-09-30T15:45:49;22.50;88.60
22108;DHT22;11220;48.812;9.128;2023-09-30T15:48:15;22.50;88.60